createdAt,value
2022-12-26T00:43:34.233Z,24.90
2022-12-26T00:46:12.413Z,24.40
2022-12-26T00:48:52.648Z,25.20
2022-12-26T00:51:28.499Z,25.20
2022-12-26T00:54:04.340Z,25.10
2022-12-26T00:56:42.931Z,25.10
2022-12-26T00:59:19.085Z,25.10
2022-12-26T01:01:56.323Z,25.20
2022-12-26T01:04:32.802Z,25.20
2022-12-26T01:07:08.110Z,25.10
2022-12-26T01:09:45.148Z,25.20
2022-12-26T01:12:20.594Z,25.20
2022-12-26T05:32:50.579Z,24.90
2022-12-26T05:35:28.739Z,24.90
2022-12-26T05:38:06.060Z,24.80
2022-12-26T05:40:41.805Z,24.80
2022-12-26T05:43:17.442Z,24.70
2022-12-26T05:45:53.886Z,24.70
2022-12-26T05:48:29.409Z,24.60
2022-12-26T05:51:06.771Z,24.50
2022-12-26T05:53:44.411Z,24.50
2022-12-26T05:56:21.718Z,24.50
2022-12-26T05:59:00.674Z,24.50
2022-12-26T06:01:36.369Z,24.50
2022-12-26T06:04:12.123Z,24.50
2022-12-26T06:06:48.761Z,24.50
2022-12-26T06:43:10.919Z,24.20
2022-12-26T08:46:18.209Z,23.40
2022-12-26T08:48:54.242Z,23.50
2022-12-26T08:51:30.585Z,23.40
2022-12-26T08:54:07.127Z,23.60
2022-12-26T08:56:43.450Z,23.40
2022-12-26T16:49:47.009Z,22.10
2022-12-26T16:52:46.218Z,22.30
2022-12-26T16:55:49.185Z,22.20
2022-12-26T16:58:31.082Z,22.20
2022-12-26T17:01:12.627Z,22.20
2022-12-26T17:03:57.079Z,22.20
2022-12-26T17:06:37.077Z,22.20
2022-12-26T17:09:17.125Z,22.20
2022-12-26T17:11:58.155Z,22.10
2022-12-26T17:14:36.364Z,22.10
2022-12-26T17:17:13.411Z,22.10
2022-12-26T17:19:53.749Z,22.10
2022-12-26T17:22:40.402Z,22.10
2022-12-26T17:25:29.529Z,22.20
2022-12-26T17:28:28.042Z,22.10
2022-12-26T17:31:18.601Z,22.20
2022-12-26T17:33:54.873Z,22.20
2022-12-26T17:39:34.154Z,22.10
2022-12-26T17:42:12.053Z,22.10
2022-12-26T17:44:49.850Z,22.10
2022-12-26T17:47:27.899Z,22.10
2022-12-26T17:50:03.709Z,22.10
2022-12-26T17:52:39.455Z,22.10
2022-12-26T17:55:24.555Z,22.10
2022-12-26T17:57:59.889Z,22.00
2022-12-26T18:00:38.339Z,22.00
2022-12-26T18:03:14.090Z,22.00
2022-12-26T18:05:50.753Z,22.00
2022-12-26T18:08:32.017Z,22.00
2022-12-26T18:11:14.561Z,22.00
2022-12-26T18:13:50.260Z,22.00
2022-12-26T18:16:29.953Z,22.00
2022-12-26T18:19:05.567Z,21.90
2022-12-26T18:21:41.295Z,22.00
2022-12-26T18:24:17.026Z,22.00
2022-12-26T18:26:56.476Z,22.00
2022-12-26T18:29:31.951Z,21.90
2022-12-26T18:32:07.746Z,22.00
2022-12-26T18:34:43.420Z,22.00
2022-12-26T18:37:19.818Z,22.00
2022-12-26T18:39:55.164Z,22.20
2022-12-26T18:42:33.277Z,21.90
2022-12-26T18:45:09.122Z,21.90
2022-12-26T18:47:45.309Z,21.90
2022-12-26T18:50:21.915Z,21.90
2022-12-26T18:52:57.421Z,21.90
2022-12-26T18:55:33.554Z,21.90
2022-12-26T18:58:12.159Z,21.90
2022-12-26T19:00:47.919Z,21.90
2022-12-26T19:03:23.465Z,21.80
2022-12-26T19:05:59.137Z,21.80
2022-12-26T19:08:35.689Z,21.80
2022-12-26T19:11:11.273Z,21.90
2022-12-26T19:13:49.411Z,21.90
2022-12-26T19:16:25.144Z,22.00
2022-12-26T19:19:01.382Z,22.10
2022-12-26T19:21:36.468Z,22.10
2022-12-26T19:24:12.121Z,22.30
2022-12-26T19:26:47.461Z,22.30
2022-12-26T19:29:25.745Z,22.50
2022-12-26T19:32:01.063Z,22.50
2022-12-26T19:34:36.467Z,22.60
2022-12-26T19:37:12.515Z,22.70
2022-12-26T19:39:48.310Z,22.80
2022-12-26T19:42:23.963Z,22.80
2022-12-26T19:45:01.952Z,22.90
2022-12-26T19:47:38.213Z,22.90
2022-12-26T19:50:15.950Z,23.00
2022-12-26T19:52:52.026Z,23.10
2022-12-26T19:55:27.955Z,23.20
2022-12-26T19:58:03.720Z,23.20
2022-12-26T20:00:42.342Z,23.30
2022-12-26T20:03:17.979Z,23.30
2022-12-26T20:05:53.931Z,23.30
2022-12-26T20:08:29.513Z,23.30
2022-12-26T20:11:12.057Z,23.30
2022-12-26T20:13:49.036Z,23.40
2022-12-26T20:19:24.604Z,23.50
2022-12-26T20:22:01.075Z,23.60
2022-12-26T20:24:36.844Z,23.60
2022-12-26T20:27:12.631Z,23.60
2022-12-26T20:29:48.339Z,23.70
2022-12-26T20:32:26.598Z,23.70
2022-12-26T20:35:02.130Z,23.80
2022-12-26T20:37:37.989Z,23.80
2022-12-26T20:40:14.297Z,23.70
2022-12-26T20:42:50.185Z,23.70
2022-12-26T20:45:25.786Z,23.70
2022-12-26T20:48:03.973Z,23.80
2022-12-26T20:50:39.402Z,23.80
2022-12-26T20:53:15.498Z,23.80
2022-12-26T20:55:54.720Z,23.80
2022-12-26T20:58:31.983Z,23.80
2022-12-26T21:01:09.100Z,23.80
2022-12-26T21:03:48.210Z,23.80
2022-12-26T21:06:25.395Z,23.90
2022-12-26T21:09:01.820Z,23.90
2022-12-26T21:11:39.672Z,23.90
2022-12-26T21:14:17.816Z,24.00
2022-12-26T21:16:55.203Z,24.00
2022-12-26T21:19:33.748Z,24.00
2022-12-26T21:22:08.885Z,24.10
2022-12-26T21:24:44.893Z,24.10
2022-12-26T21:27:20.151Z,24.10
2022-12-26T21:29:55.701Z,24.20
2022-12-26T21:32:31.016Z,24.20
2022-12-26T21:35:09.417Z,24.10
2022-12-26T21:37:53.803Z,24.10
2022-12-26T21:40:29.326Z,24.00
2022-12-26T21:43:04.668Z,24.20
2022-12-26T21:45:43.289Z,24.20
2022-12-26T21:48:18.635Z,24.20
2022-12-26T21:50:58.061Z,24.20
2022-12-26T21:53:33.478Z,24.20
2022-12-26T21:56:12.352Z,24.10
2022-12-26T21:59:04.055Z,24.10
2022-12-26T22:01:40.084Z,24.20
2022-12-26T22:04:21.496Z,24.20
2022-12-26T22:07:00.808Z,24.10
2022-12-26T22:09:37.217Z,24.00
2022-12-26T22:12:31.263Z,24.00
2022-12-26T22:15:06.592Z,24.10
2022-12-26T22:17:43.425Z,24.10
2022-12-26T22:20:19.039Z,24.10
2022-12-26T22:22:57.484Z,24.10
2022-12-26T22:25:32.918Z,24.10
2022-12-26T22:28:09.319Z,24.10
2022-12-26T22:30:50.878Z,24.10
2022-12-26T22:33:27.153Z,24.30
2022-12-26T22:36:09.730Z,24.30
2022-12-26T22:38:48.324Z,24.40
2022-12-26T22:41:24.216Z,24.50
2022-12-26T22:44:03.428Z,24.50
2022-12-26T22:46:38.743Z,24.60
2022-12-26T22:49:15.181Z,24.60
2022-12-26T22:51:50.469Z,24.70
2022-12-26T22:54:29.048Z,24.70
2022-12-26T22:57:04.414Z,24.70
2022-12-26T23:00:07.546Z,24.80
2022-12-26T23:02:36.086Z,24.80
2022-12-26T23:05:15.852Z,24.70
2022-12-26T23:07:51.740Z,24.80
2022-12-26T23:10:30.918Z,24.90
2022-12-26T23:13:07.158Z,24.80
2022-12-26T23:15:51.666Z,24.70
2022-12-26T23:18:51.525Z,24.80
2022-12-26T23:21:44.015Z,24.80
2022-12-26T23:24:22.574Z,24.80
2022-12-26T23:27:23.825Z,25.00
2022-12-26T23:30:15.797Z,24.90
2022-12-26T23:32:54.281Z,25.00
2022-12-26T23:35:30.428Z,25.00
2022-12-26T23:38:06.082Z,25.10
2022-12-26T23:40:41.284Z,25.10
2022-12-26T23:43:19.012Z,25.10
2022-12-26T23:45:55.653Z,25.20
2022-12-26T23:48:31.572Z,25.20
2022-12-26T23:51:08.701Z,25.20
2022-12-26T23:53:44.660Z,25.10
2022-12-26T23:56:21.662Z,25.20
2022-12-26T23:58:59.349Z,25.30
